Time;durP1;ratioP1;P1;durP2;ratioP2;P2;SDS_P1;SDS_P2;PMS_P1;PMS_P2;Temp;Humidity;BMP_temperature;BMP_pressure;BME280_temperature;BME280_humidity;BME280_pressure;Samples;Min_cycle;Max_cycle;Signal;HPM_P1;HPM_P2
2022/02/20 00:04:48;;;;;;;1.50;1.40;;;;;;;;;;4982898;28;20089;-86
2022/02/20 00:07:16;;;;;;;2.00;1.90;;;;;;;;;;5004082;28;20069;-87
2022/02/20 00:10:27;;;;;;;8.05;2.17;;;;;;;;;;5000107;28;20049;-87
2022/02/20 00:13:04;;;;;;;1.77;1.67;;;;;;;;;;5005747;28;20057;-85
2022/02/20 00:16:23;;;;;;;3.15;2.95;;;;;;;;;;4936559;28;20062;-88
2022/02/20 00:19:28;;;;;;;3.28;2.65;;;;;;;;;;4983711;28;20060;-87
2022/02/20 00:21:56;;;;;;;2.30;1.65;;;;;;;;;;4958362;28;20055;-89
2022/02/20 00:24:37;;;;;;;12.20;5.25;;;;;;;;;;4947994;28;20511;-89
2022/02/20 00:27:07;;;;;;;2.30;1.88;;;;;;;;;;4946482;28;20581;-90
2022/02/20 00:29:49;;;;;;;1.50;1.40;;;;;;;;;;4942512;28;20050;-90
2022/02/20 00:32:20;;;;;;;2.75;2.22;;;;;;;;;;4970426;28;20053;-88
2022/02/20 00:34:49;;;;;;;1.95;1.73;;;;;;;;;;5022904;28;20049;-88
2022/02/20 00:37:21;;;;;;;3.53;1.50;;;;;;;;;;5027202;28;20076;-90
2022/02/20 00:40:15;;;;;;;14.13;4.03;;;;;;;;;;5045927;28;20049;-89
2022/02/20 00:43:28;;;;;;;1.50;1.40;;;;;;;;;;5020826;28;20367;-84
2022/02/20 00:45:56;;;;;;;2.28;2.00;;;;;;;;;;5010283;28;20056;-88
2022/02/20 00:48:37;;;;;;;4.72;2.85;;;;;;;;;;4978993;28;20061;-90
2022/02/20 00:51:06;;;;;;;10.50;2.03;;;;;;;;;;5016851;28;20063;-88
2022/02/20 00:53:35;;;;;;;1.75;1.65;;;;;;;;;;5008348;28;20057;-88
2022/02/20 00:56:04;;;;;;;1.83;1.73;;;;;;;;;;5022500;28;20061;-89
2022/02/20 00:58:35;;;;;;;3.05;2.65;;;;;;;;;;4996688;28;20056;-89
2022/02/20 01:01:12;;;;;;;2.17;1.90;;;;;;;;;;5026322;28;20052;-90
2022/02/20 01:03:45;;;;;;;2.13;2.03;;;;;;;;;;5006771;28;20046;-89
2022/02/20 01:06:16;;;;;;;3.70;2.83;;;;;;;;;;5024151;28;20049;-88
2022/02/20 01:08:46;;;;;;;3.15;2.95;;;;;;;;;;4998605;28;20300;-89
2022/02/20 01:11:20;;;;;;;2.80;2.60;;;;;;;;;;5042165;23;20533;-88
2022/02/20 01:13:52;;;;;;;6.13;1.58;;;;;;;;;;5012903;28;21211;-89
2022/02/20 01:16:24;;;;;;;1.50;1.40;;;;;;;;;;4999853;28;20515;-89
2022/02/20 01:18:53;;;;;;;2.35;1.83;;;;;;;;;;5058069;28;20051;-88
2022/02/20 01:21:23;;;;;;;6.78;2.10;;;;;;;;;;5069551;28;20051;-88
2022/02/20 01:23:53;;;;;;;1.33;1.33;;;;;;;;;;5052023;28;20049;-88
2022/02/20 01:26:23;;;;;;;4.47;2.47;;;;;;;;;;5051711;28;20049;-88
2022/02/20 01:28:51;;;;;;;1.67;1.42;;;;;;;;;;5047182;28;20045;-89
2022/02/20 01:31:21;;;;;;;2.20;1.88;;;;;;;;;;5049219;28;20048;-88
2022/02/20 01:33:50;;;;;;;3.08;1.15;;;;;;;;;;5049962;28;20060;-90
2022/02/20 01:36:19;;;;;;;2.47;1.50;;;;;;;;;;5015564;28;20056;-89
2022/02/20 01:39:03;;;;;;;1.50;1.40;;;;;;;;;;5048644;28;20053;-88
2022/02/20 01:41:44;;;;;;;1.25;1.23;;;;;;;;;;4981516;28;20053;-89
2022/02/20 01:44:13;;;;;;;2.05;1.85;;;;;;;;;;5000652;28;20057;-90
2022/02/20 01:46:45;;;;;;;2.38;1.27;;;;;;;;;;4991321;28;20068;-89
2022/02/20 01:49:20;;;;;;;1.45;1.35;;;;;;;;;;4990706;28;20053;-90
2022/02/20 01:51:50;;;;;;;1.40;1.30;;;;;;;;;;5003582;28;20412;-89
2022/02/20 01:54:18;;;;;;;1.83;1.73;;;;;;;;;;4986845;28;20065;-86
2022/02/20 01:56:54;;;;;;;1.55;1.45;;;;;;;;;;4996788;28;20054;-90
2022/02/20 01:59:30;;;;;;;2.22;1.85;;;;;;;;;;5002373;28;20050;-90
2022/02/20 02:02:19;;;;;;;1.85;1.75;;;;;;;;;;4990817;28;20050;-87
2022/02/20 02:05:01;;;;;;;6.05;2.95;;;;;;;;;;4990741;28;20045;-88
2022/02/20 02:07:32;;;;;;;3.28;1.35;;;;;;;;;;4987961;28;20055;-89
2022/02/20 02:10:53;;;;;;;1.67;1.58;;;;;;;;;;5026585;28;20054;-88
2022/02/20 02:14:23;;;;;;;4.55;1.52;;;;;;;;;;5047532;28;20045;-85
2022/02/20 02:17:57;;;;;;;2.22;2.08;;;;;;;;;;5050777;28;20056;-81
2022/02/20 02:21:24;;;;;;;3.65;1.88;;;;;;;;;;5046899;28;20052;-84
2022/02/20 02:25:09;;;;;;;3.78;1.88;;;;;;;;;;5047656;28;20053;-85
2022/02/20 02:28:44;;;;;;;2.88;2.55;;;;;;;;;;5021466;28;20053;-86
2022/02/20 02:32:13;;;;;;;2.25;1.50;;;;;;;;;;5009544;28;20041;-86
2022/02/20 02:35:06;;;;;;;6.28;2.10;;;;;;;;;;5007520;28;20053;-86
2022/02/20 02:37:39;;;;;;;4.57;2.50;;;;;;;;;;5025301;28;20056;-81
2022/02/20 02:40:08;;;;;;;5.65;1.90;;;;;;;;;;5025612;28;20084;-84
2022/02/20 02:42:37;;;;;;;3.80;1.70;;;;;;;;;;5028108;28;20380;-84
2022/02/20 02:45:07;;;;;;;1.52;1.45;;;;;;;;;;5032047;28;20049;-83
2022/02/20 02:47:36;;;;;;;2.50;2.22;;;;;;;;;;5029191;28;20045;-84
2022/02/20 02:50:05;;;;;;;1.20;1.10;;;;;;;;;;5030183;28;20604;-85
2022/02/20 02:52:34;;;;;;;3.30;2.15;;;;;;;;;;5029137;28;20053;-84
2022/02/20 02:55:02;;;;;;;1.48;1.38;;;;;;;;;;4997032;28;20049;-83
2022/02/20 02:57:31;;;;;;;6.35;2.00;;;;;;;;;;5044567;28;20067;-84
2022/02/20 03:00:00;;;;;;;11.13;2.25;;;;;;;;;;5028525;28;20052;-87
2022/02/20 03:02:29;;;;;;;1.75;1.58;;;;;;;;;;5047925;28;20045;-85
2022/02/20 03:05:03;;;;;;;1.00;1.00;;;;;;;;;;5028871;28;20037;-86
2022/02/20 03:07:35;;;;;;;0.90;0.90;;;;;;;;;;5028903;28;20044;-88
2022/02/20 03:10:06;;;;;;;3.80;1.80;;;;;;;;;;5002984;28;20049;-84
2022/02/20 03:12:37;;;;;;;5.30;2.45;;;;;;;;;;5023331;28;20393;-85
2022/02/20 03:15:07;;;;;;;1.00;1.00;;;;;;;;;;5026988;28;20072;-85
2022/02/20 03:17:36;;;;;;;1.10;1.00;;;;;;;;;;5026439;28;20041;-83
2022/02/20 03:20:05;;;;;;;1.17;1.17;;;;;;;;;;5025369;28;20052;-86
2022/02/20 03:22:36;;;;;;;1.40;1.30;;;;;;;;;;5026197;28;20049;-82
2022/02/20 03:25:05;;;;;;;3.47;2.45;;;;;;;;;;5025242;28;20041;-86
2022/02/20 03:27:36;;;;;;;1.63;1.53;;;;;;;;;;5025697;28;20037;-90
2022/02/20 03:30:10;;;;;;;1.60;1.50;;;;;;;;;;5025225;28;20049;-82
2022/02/20 03:32:45;;;;;;;1.42;1.35;;;;;;;;;;5024700;28;20045;-85
2022/02/20 03:35:18;;;;;;;1.42;1.33;;;;;;;;;;5025440;28;20052;-86
2022/02/20 03:37:47;;;;;;;1.35;1.30;;;;;;;;;;5025390;28;20044;-87
2022/02/20 03:40:17;;;;;;;1.38;1.30;;;;;;;;;;5008240;28;20418;-87
2022/02/20 03:42:47;;;;;;;1.85;1.20;;;;;;;;;;5027409;28;20049;-87
2022/02/20 03:45:38;;;;;;;4.82;1.20;;;;;;;;;;5027414;28;20049;-86
2022/02/20 03:48:07;;;;;;;1.27;1.27;;;;;;;;;;5029223;28;20064;-85
2022/02/20 03:50:39;;;;;;;1.30;1.20;;;;;;;;;;5027698;28;20382;-85
2022/02/20 03:53:08;;;;;;;1.63;1.52;;;;;;;;;;5037578;28;20042;-83
2022/02/20 03:55:37;;;;;;;1.13;1.05;;;;;;;;;;5030989;28;20041;-85
2022/02/20 03:58:06;;;;;;;4.10;1.00;;;;;;;;;;5032903;28;20044;-85
2022/02/20 04:00:55;;;;;;;1.05;1.05;;;;;;;;;;5047548;28;20041;-89
2022/02/20 04:03:45;;;;;;;1.10;1.00;;;;;;;;;;5028195;28;20045;-87
2022/02/20 04:06:15;;;;;;;1.80;1.15;;;;;;;;;;5046707;28;20063;-85
2022/02/20 04:08:49;;;;;;;2.03;1.88;;;;;;;;;;5044255;28;20052;-89
2022/02/20 04:11:58;;;;;;;3.80;1.90;;;;;;;;;;5044381;28;20538;-85
2022/02/20 04:14:38;;;;;;;1.08;1.05;;;;;;;;;;5043962;28;20059;-88
2022/02/20 04:17:11;;;;;;;1.20;1.20;;;;;;;;;;5028250;28;20052;-88
2022/02/20 04:19:44;;;;;;;2.38;1.27;;;;;;;;;;5044601;28;20037;-88
2022/02/20 04:22:14;;;;;;;1.92;1.83;;;;;;;;;;5028568;28;20044;-87
2022/02/20 04:24:45;;;;;;;2.00;1.60;;;;;;;;;;5027951;28;20041;-86
2022/02/20 04:27:21;;;;;;;1.30;1.30;;;;;;;;;;5027837;28;20051;-86
2022/02/20 04:29:57;;;;;;;4.32;2.22;;;;;;;;;;5027744;28;20045;-85
2022/02/20 04:32:28;;;;;;;2.97;1.67;;;;;;;;;;5024936;28;20045;-86
2022/02/20 04:35:04;;;;;;;5.18;1.75;;;;;;;;;;4992419;28;20080;-85
2022/02/20 04:37:35;;;;;;;2.20;1.35;;;;;;;;;;5041791;28;20033;-88
2022/02/20 04:40:06;;;;;;;1.10;1.00;;;;;;;;;;5044515;28;20052;-86
2022/02/20 04:42:43;;;;;;;1.23;1.17;;;;;;;;;;5045097;28;20393;-86
2022/02/20 04:45:19;;;;;;;3.47;1.92;;;;;;;;;;5046423;28;20918;-84
2022/02/20 04:47:51;;;;;;;1.02;1.00;;;;;;;;;;5047526;28;20045;-88
2022/02/20 04:50:24;;;;;;;1.17;1.17;;;;;;;;;;5048788;28;20041;-84
2022/02/20 04:52:58;;;;;;;2.83;1.80;;;;;;;;;;5048144;28;20493;-87
2022/02/20 04:55:31;;;;;;;2.00;1.80;;;;;;;;;;5046904;28;20486;-85
2022/02/20 04:58:03;;;;;;;5.18;1.20;;;;;;;;;;5031334;28;20053;-86
2022/02/20 05:00:35;;;;;;;1.15;1.05;;;;;;;;;;5011238;28;20074;-84
2022/02/20 05:03:16;;;;;;;1.67;1.58;;;;;;;;;;5011061;28;20056;-85
2022/02/20 05:06:09;;;;;;;2.88;1.70;;;;;;;;;;5000044;28;20505;-85
2022/02/20 05:08:45;;;;;;;1.00;1.00;;;;;;;;;;5011864;28;20082;-85
2022/02/20 05:11:20;;;;;;;1.50;1.33;;;;;;;;;;5011252;28;20060;-84
2022/02/20 05:13:58;;;;;;;2.05;1.50;;;;;;;;;;5027795;28;20072;-85
2022/02/20 05:16:31;;;;;;;2.20;2.00;;;;;;;;;;5011314;28;20056;-86
2022/02/20 05:19:08;;;;;;;1.30;1.05;;;;;;;;;;5028245;28;20364;-87
2022/02/20 05:21:50;;;;;;;2.50;1.77;;;;;;;;;;4977716;28;20084;-89
2022/02/20 05:24:23;;;;;;;1.30;1.30;;;;;;;;;;5027927;28;20418;-88
2022/02/20 05:26:56;;;;;;;2.03;1.33;;;;;;;;;;5011766;28;20536;-87
2022/02/20 05:29:38;;;;;;;1.58;1.10;;;;;;;;;;5027098;28;20053;-85
2022/02/20 05:32:09;;;;;;;6.28;1.73;;;;;;;;;;5027790;28;20045;-87
2022/02/20 05:34:54;;;;;;;7.03;1.52;;;;;;;;;;5028281;28;20060;-88
2022/02/20 05:37:29;;;;;;;1.88;1.50;;;;;;;;;;5027711;28;20038;-87
2022/02/20 05:40:02;;;;;;;1.75;1.65;;;;;;;;;;5028509;28;20041;-88
2022/02/20 05:42:35;;;;;;;1.35;1.30;;;;;;;;;;5028141;28;20057;-89
2022/02/20 05:45:10;;;;;;;2.45;2.25;;;;;;;;;;5028036;28;20388;-89
2022/02/20 05:47:43;;;;;;;1.48;1.45;;;;;;;;;;5057088;28;20059;-88
2022/02/20 05:50:13;;;;;;;;;;;;;;;;;;5032261;28;20056;-88
2022/02/20 05:52:49;;;;;;;0.88;0.88;;;;;;;;;;5014963;28;20372;-87
2022/02/20 05:55:25;;;;;;;1.45;1.35;;;;;;;;;;5030227;28;20054;-86
2022/02/20 05:57:56;;;;;;;3.50;1.00;;;;;;;;;;4998646;28;20060;-86
2022/02/20 06:00:39;;;;;;;2.75;1.30;;;;;;;;;;5010312;28;20416;-87
2022/02/20 06:03:10;;;;;;;1.00;1.00;;;;;;;;;;5010031;28;20052;-88
2022/02/20 06:05:54;;;;;;;1.98;1.88;;;;;;;;;;4996693;28;20056;-87
2022/02/20 06:08:30;;;;;;;0.70;0.70;;;;;;;;;;5029727;28;20048;-88
2022/02/20 06:11:11;;;;;;;1.20;1.10;;;;;;;;;;5047012;28;20573;-85
2022/02/20 06:14:07;;;;;;;1.60;1.50;;;;;;;;;;5014247;28;20045;-87
2022/02/20 06:16:52;;;;;;;1.25;1.15;;;;;;;;;;5046081;28;20048;-85
2022/02/20 06:20:01;;;;;;;2.45;2.03;;;;;;;;;;4985891;28;20042;-87
2022/02/20 06:22:41;;;;;;;1.10;1.00;;;;;;;;;;4970430;28;20055;-88
2022/02/20 06:25:31;;;;;;;2.42;1.35;;;;;;;;;;5005016;28;20533;-86
2022/02/20 06:28:15;;;;;;;3.72;1.25;;;;;;;;;;5039511;28;20055;-86
2022/02/20 06:30:45;;;;;;;2.17;1.13;;;;;;;;;;5013822;28;20048;-89
2022/02/20 06:33:27;;;;;;;1.83;1.60;;;;;;;;;;5046236;28;20045;-84
2022/02/20 06:36:02;;;;;;;1.73;1.50;;;;;;;;;;5029812;28;20044;-86
2022/02/20 06:38:32;;;;;;;1.45;1.27;;;;;;;;;;5046324;28;20105;-83
2022/02/20 06:41:02;;;;;;;2.03;1.83;;;;;;;;;;5046530;28;20052;-88
2022/02/20 06:43:45;;;;;;;0.88;0.88;;;;;;;;;;5014660;28;20048;-87
2022/02/20 06:46:34;;;;;;;5.75;1.80;;;;;;;;;;5048384;28;20568;-89
2022/02/20 06:49:15;;;;;;;;;;;;;;;;;;5029708;28;20056;-86
2022/02/20 06:52:09;;;;;;;3.13;1.25;;;;;;;;;;5036623;28;19924;-90
2022/02/20 06:55:11;;;;;;;2.25;1.25;;;;;;;;;;5034543;28;20063;-88
2022/02/20 06:58:08;;;;;;;1.42;1.30;;;;;;;;;;5026588;28;20056;-87
2022/02/20 07:00:40;;;;;;;1.30;1.20;;;;;;;;;;5045725;28;20041;-89
2022/02/20 07:03:11;;;;;;;1.73;1.63;;;;;;;;;;5037576;28;20395;-88
2022/02/20 07:05:42;;;;;;;1.10;1.10;;;;;;;;;;5047339;28;20123;-89
2022/02/20 07:08:13;;;;;;;1.63;1.52;;;;;;;;;;5046104;28;20041;-84
2022/02/20 07:10:44;;;;;;;1.67;1.57;;;;;;;;;;5029888;28;20052;-88
2022/02/20 07:13:15;;;;;;;3.83;1.10;;;;;;;;;;5029145;28;20052;-86
2022/02/20 07:15:48;;;;;;;1.70;1.15;;;;;;;;;;5047140;28;20045;-85
2022/02/20 07:18:20;;;;;;;2.50;1.35;;;;;;;;;;5029116;28;20132;-89
2022/02/20 07:20:54;;;;;;;3.63;2.35;;;;;;;;;;5013141;28;20045;-88
2022/02/20 07:23:26;;;;;;;;;;;;;;;;;;5028728;28;20429;-85
2022/02/20 07:26:00;;;;;;;1.50;1.45;;;;;;;;;;5047260;28;19925;-85
2022/02/20 07:28:32;;;;;;;2.13;1.20;;;;;;;;;;5012475;28;20056;-86
2022/02/20 07:31:08;;;;;;;1.58;1.27;;;;;;;;;;5043543;28;20037;-86
2022/02/20 07:33:39;;;;;;;1.35;1.33;;;;;;;;;;5038951;28;20478;-87
2022/02/20 07:36:12;;;;;;;1.25;1.15;;;;;;;;;;5028141;28;20044;-87
2022/02/20 07:38:45;;;;;;;1.50;1.40;;;;;;;;;;5011040;28;20487;-86
2022/02/20 07:41:18;;;;;;;1.27;1.27;;;;;;;;;;5028658;28;20036;-87
2022/02/20 07:43:50;;;;;;;1.20;1.05;;;;;;;;;;5028241;28;20049;-87
2022/02/20 07:46:21;;;;;;;1.38;1.27;;;;;;;;;;5046622;28;20049;-85
2022/02/20 07:48:55;;;;;;;1.42;1.33;;;;;;;;;;5046014;28;20045;-86
2022/02/20 07:51:26;;;;;;;1.95;1.83;;;;;;;;;;5025060;28;20041;-86
2022/02/20 07:53:59;;;;;;;7.03;1.95;;;;;;;;;;5022713;28;20049;-86
2022/02/20 07:56:30;;;;;;;1.98;1.33;;;;;;;;;;5035469;28;20033;-89
2022/02/20 07:59:06;;;;;;;1.75;1.65;;;;;;;;;;5045842;28;20056;-88
2022/02/20 08:01:37;;;;;;;;;;;;;;;;;;5028753;28;20044;-88
2022/02/20 08:04:09;;;;;;;1.17;1.13;;;;;;;;;;5028810;28;19936;-88
2022/02/20 08:06:42;;;;;;;1.50;1.40;;;;;;;;;;5043747;28;20068;-87
2022/02/20 08:09:15;;;;;;;1.17;1.08;;;;;;;;;;5026071;28;20049;-86
2022/02/20 08:11:45;;;;;;;1.48;1.38;;;;;;;;;;5044229;28;20044;-87
2022/02/20 08:14:15;;;;;;;4.15;1.85;;;;;;;;;;5042876;28;20060;-86
2022/02/20 08:16:47;;;;;;;1.40;1.30;;;;;;;;;;5045859;28;20064;-87
2022/02/20 08:19:19;;;;;;;1.55;1.45;;;;;;;;;;5045072;28;20045;-86
2022/02/20 08:21:52;;;;;;;2.88;2.58;;;;;;;;;;5046259;28;20041;-88
2022/02/20 08:24:27;;;;;;;1.88;1.48;;;;;;;;;;5027491;28;20506;-88
2022/02/20 08:27:02;;;;;;;0.90;0.90;;;;;;;;;;5009498;28;20502;-88
2022/02/20 08:29:36;;;;;;;1.13;1.10;;;;;;;;;;5007558;28;20053;-84
2022/02/20 08:32:07;;;;;;;1.52;1.42;;;;;;;;;;5027952;28;20052;-84
2022/02/20 08:34:41;;;;;;;1.73;1.40;;;;;;;;;;5062574;28;20048;-85
2022/02/20 08:37:15;;;;;;;0.98;0.98;;;;;;;;;;5066085;28;20052;-82
2022/02/20 08:39:51;;;;;;;1.63;1.52;;;;;;;;;;5031036;28;20048;-84
2022/02/20 08:42:23;;;;;;;1.75;1.50;;;;;;;;;;5048947;28;20044;-87
2022/02/20 08:44:54;;;;;;;1.63;1.52;;;;;;;;;;5047411;28;20052;-89
2022/02/20 08:47:25;;;;;;;0.90;0.90;;;;;;;;;;5014479;28;20747;-84
2022/02/20 08:49:55;;;;;;;0.80;0.80;;;;;;;;;;5045642;28;20394;-86
2022/02/20 08:52:25;;;;;;;1.50;1.35;;;;;;;;;;5026826;28;20041;-86
2022/02/20 08:54:55;;;;;;;0.77;0.77;;;;;;;;;;5046217;28;20071;-86
2022/02/20 08:57:31;;;;;;;0.80;0.80;;;;;;;;;;5016815;28;20773;-86
2022/02/20 09:00:06;;;;;;;1.33;1.23;;;;;;;;;;5044727;28;20056;-86
2022/02/20 09:02:40;;;;;;;2.50;1.10;;;;;;;;;;5026919;28;20052;-87
2022/02/20 09:05:21;;;;;;;1.33;1.23;;;;;;;;;;4996865;28;20420;-84
2022/02/20 09:07:57;;;;;;;2.38;1.00;;;;;;;;;;5036566;28;20045;-84
2022/02/20 09:10:31;;;;;;;6.28;0.95;;;;;;;;;;5045593;28;20659;-84
2022/02/20 09:13:03;;;;;;;1.10;1.00;;;;;;;;;;5027985;28;20049;-85
2022/02/20 09:15:34;;;;;;;;;;;;;;;;;;5046288;28;20410;-83
2022/02/20 09:18:06;;;;;;;1.95;1.30;;;;;;;;;;5027957;28;19932;-85
2022/02/20 09:20:40;;;;;;;1.55;1.45;;;;;;;;;;5045491;28;20414;-83
2022/02/20 09:23:11;;;;;;;1.67;1.15;;;;;;;;;;5028445;28;20059;-86
2022/02/20 09:25:43;;;;;;;1.17;1.17;;;;;;;;;;5027226;28;20724;-80
2022/02/20 09:28:13;;;;;;;1.25;1.23;;;;;;;;;;5044701;28;20529;-84
2022/02/20 09:30:43;;;;;;;3.80;1.13;;;;;;;;;;5044653;28;20049;-79
2022/02/20 09:33:12;;;;;;;1.30;1.30;;;;;;;;;;5048163;28;20041;-88
2022/02/20 09:35:41;;;;;;;3.38;1.92;;;;;;;;;;5030876;28;20060;-85
2022/02/20 09:38:10;;;;;;;1.15;1.10;;;;;;;;;;5030905;28;20386;-83
2022/02/20 09:40:39;;;;;;;1.60;1.50;;;;;;;;;;5048868;28;20037;-87
2022/02/20 09:43:14;;;;;;;11.43;1.17;;;;;;;;;;5048136;28;20049;-85
2022/02/20 09:45:48;;;;;;;3.20;1.95;;;;;;;;;;5030149;28;20045;-86
2022/02/20 09:48:19;;;;;;;0.80;0.80;;;;;;;;;;5061007;28;20047;-90
2022/02/20 09:50:50;;;;;;;7.13;1.75;;;;;;;;;;5033516;28;20075;-88
2022/02/20 09:53:28;;;;;;;1.63;1.52;;;;;;;;;;5051844;28;20037;-90
2022/02/20 09:56:08;;;;;;;1.08;0.85;;;;;;;;;;5029677;28;20049;-87
2022/02/20 09:58:39;;;;;;;1.27;1.17;;;;;;;;;;5029502;28;20049;-86
2022/02/20 10:01:21;;;;;;;2.25;1.00;;;;;;;;;;5044519;28;20052;-87
2022/02/20 10:03:50;;;;;;;0.93;0.93;;;;;;;;;;5011232;28;20060;-92
2022/02/20 10:06:28;;;;;;;1.45;1.35;;;;;;;;;;5030117;28;20056;-90
2022/02/20 10:08:58;;;;;;;0.80;0.80;;;;;;;;;;5010018;28;20058;-90
2022/02/20 10:11:29;;;;;;;1.10;1.10;;;;;;;;;;5030065;28;20049;-86
2022/02/20 10:14:04;;;;;;;1.17;1.10;;;;;;;;;;5036723;28;20060;-87
2022/02/20 10:16:33;;;;;;;2.35;1.30;;;;;;;;;;5006133;28;20521;-87
2022/02/20 10:19:03;;;;;;;1.95;1.63;;;;;;;;;;5032216;28;20406;-87
2022/02/20 10:22:13;;;;;;;0.70;0.70;;;;;;;;;;4952920;28;20050;-88
2022/02/20 10:25:10;;;;;;;1.38;1.27;;;;;;;;;;4950539;28;20055;-81
2022/02/20 10:28:01;;;;;;;0.98;0.98;;;;;;;;;;5015356;28;20045;-84
2022/02/20 10:30:49;;;;;;;1.52;1.42;;;;;;;;;;5012947;28;20044;-86
2022/02/20 10:33:20;;;;;;;2.05;1.02;;;;;;;;;;5046314;28;20045;-86
2022/02/20 10:35:50;;;;;;;2.50;1.17;;;;;;;;;;5035043;28;20048;-85
2022/02/20 10:38:21;;;;;;;1.10;1.10;;;;;;;;;;5050254;28;20053;-85
2022/02/20 10:40:50;;;;;;;9.50;1.17;;;;;;;;;;5029063;28;20037;-84
2022/02/20 10:43:32;;;;;;;2.50;1.10;;;;;;;;;;5032151;28;20041;-82
2022/02/20 10:46:09;;;;;;;1.10;1.10;;;;;;;;;;5028220;28;20056;-85
2022/02/20 10:48:39;;;;;;;0.68;0.68;;;;;;;;;;5047289;28;20066;-82
2022/02/20 10:51:08;;;;;;;1.08;0.95;;;;;;;;;;5047087;28;20057;-80
2022/02/20 10:53:36;;;;;;;0.70;0.70;;;;;;;;;;5031230;28;20044;-85
2022/02/20 10:56:05;;;;;;;1.50;1.30;;;;;;;;;;5040644;28;20045;-84
2022/02/20 10:58:41;;;;;;;0.82;0.82;;;;;;;;;;5043847;28;20061;-86
2022/02/20 11:01:26;;;;;;;2.47;1.20;;;;;;;;;;5055531;28;20040;-84
2022/02/20 11:04:03;;;;;;;1.95;0.63;;;;;;;;;;5062515;28;20041;-84
2022/02/20 11:06:33;;;;;;;1.50;1.40;;;;;;;;;;5067498;28;20041;-85
2022/02/20 11:09:03;;;;;;;0.90;0.90;;;;;;;;;;5056651;28;20406;-84
2022/02/20 11:11:42;;;;;;;0.93;0.93;;;;;;;;;;5067077;28;20053;-85
2022/02/20 11:14:12;;;;;;;1.85;1.02;;;;;;;;;;5062546;28;20049;-83
2022/02/20 11:16:48;;;;;;;1.27;1.15;;;;;;;;;;5054271;28;20048;-85
2022/02/20 11:19:30;;;;;;;1.00;1.00;;;;;;;;;;5062653;28;20055;-81
2022/02/20 11:22:00;;;;;;;1.38;1.02;;;;;;;;;;5046961;28;20068;-82
2022/02/20 11:24:33;;;;;;;1.15;1.05;;;;;;;;;;5052397;28;20048;-83
2022/02/20 11:27:03;;;;;;;0.93;0.80;;;;;;;;;;5067491;28;20037;-82
2022/02/20 11:29:33;;;;;;;2.90;0.80;;;;;;;;;;5065011;28;20048;-83
2022/02/20 11:32:05;;;;;;;0.65;0.65;;;;;;;;;;5066567;28;20049;-82
2022/02/20 11:34:42;;;;;;;1.15;0.98;;;;;;;;;;5067597;28;20063;-82
2022/02/20 11:37:12;;;;;;;0.88;0.88;;;;;;;;;;5054188;28;20052;-82
2022/02/20 11:40:00;;;;;;;0.75;0.75;;;;;;;;;;5045241;28;20058;-80
2022/02/20 11:42:30;;;;;;;0.82;0.82;;;;;;;;;;5047255;28;20048;-83
2022/02/20 11:45:05;;;;;;;1.75;1.17;;;;;;;;;;5028363;28;20045;-82
2022/02/20 11:47:34;;;;;;;6.47;1.00;;;;;;;;;;5027347;28;20056;-83
2022/02/20 11:50:16;;;;;;;0.85;0.85;;;;;;;;;;5028926;28;20521;-84
2022/02/20 11:52:47;;;;;;;1.23;1.13;;;;;;;;;;5037763;28;20040;-83
2022/02/20 11:55:17;;;;;;;0.60;0.60;;;;;;;;;;5047763;28;20070;-83
2022/02/20 11:57:47;;;;;;;3.08;1.15;;;;;;;;;;5031904;28;20133;-82
2022/02/20 12:00:23;;;;;;;0.90;0.90;;;;;;;;;;5008380;28;20065;-83
2022/02/20 12:03:04;;;;;;;1.02;0.60;;;;;;;;;;5027011;28;20049;-82
2022/02/20 12:05:35;;;;;;;1.17;0.95;;;;;;;;;;5026425;28;20049;-80
2022/02/20 12:08:05;;;;;;;2.58;1.90;;;;;;;;;;5025981;28;20045;-84
2022/02/20 12:10:35;;;;;;;0.60;0.60;;;;;;;;;;5043493;28;20055;-85
2022/02/20 12:13:08;;;;;;;0.90;0.90;;;;;;;;;;5027808;28;20059;-82
2022/02/20 12:15:42;;;;;;;1.45;1.15;;;;;;;;;;5046666;28;20394;-84
2022/02/20 12:18:11;;;;;;;1.00;1.00;;;;;;;;;;5046743;28;20060;-78
2022/02/20 12:20:53;;;;;;;0.68;0.68;;;;;;;;;;5027873;28;20064;-80
2022/02/20 12:23:26;;;;;;;1.20;0.75;;;;;;;;;;4995695;28;20049;-82
2022/02/20 12:25:56;;;;;;;0.90;0.90;;;;;;;;;;5012333;28;20053;-83
2022/02/20 12:28:32;;;;;;;0.70;0.70;;;;;;;;;;5027463;28;20049;-81
2022/02/20 12:31:14;;;;;;;0.95;0.85;;;;;;;;;;5046774;28;20052;-82
2022/02/20 12:33:44;;;;;;;;;;;;;;;;;;5028340;28;20053;-82
2022/02/20 12:36:14;;;;;;;0.90;0.90;;;;;;;;;;5046170;28;20302;-81
2022/02/20 12:38:50;;;;;;;4.25;1.10;;;;;;;;;;5045992;28;20041;-80
2022/02/20 12:41:19;;;;;;;0.80;0.80;;;;;;;;;;5027884;28;20040;-82
2022/02/20 12:43:49;;;;;;;1.02;1.02;;;;;;;;;;5027224;28;20604;-80
2022/02/20 12:46:20;;;;;;;1.38;0.70;;;;;;;;;;5028380;28;20815;-79
2022/02/20 12:48:50;;;;;;;0.90;0.80;;;;;;;;;;5028178;28;20061;-84
2022/02/20 12:51:19;;;;;;;1.38;0.60;;;;;;;;;;5028696;28;20065;-83
2022/02/20 12:53:48;;;;;;;1.00;0.80;;;;;;;;;;5046704;28;20049;-81
2022/02/20 12:56:31;;;;;;;0.70;0.70;;;;;;;;;;5035456;28;20482;-82
2022/02/20 12:59:05;;;;;;;0.82;0.77;;;;;;;;;;5045046;28;20072;-80
2022/02/20 13:01:34;;;;;;;0.55;0.55;;;;;;;;;;5027959;28;20052;-79
2022/02/20 13:04:03;;;;;;;0.60;0.60;;;;;;;;;;5028114;28;20056;-78
2022/02/20 13:06:42;;;;;;;2.72;1.35;;;;;;;;;;5039128;28;20050;-82
2022/02/20 13:09:22;;;;;;;2.83;0.73;;;;;;;;;;5048443;28;20049;-80
2022/02/20 13:12:20;;;;;;;0.80;0.80;;;;;;;;;;5049224;28;20072;-83
2022/02/20 13:15:05;;;;;;;0.90;0.50;;;;;;;;;;5049087;28;20052;-82
2022/02/20 13:17:33;;;;;;;;;;;;;;;;;;5049392;28;20072;-82
2022/02/20 13:20:03;;;;;;;0.82;0.75;;;;;;;;;;5047903;28;19928;-82
2022/02/20 13:22:34;;;;;;;0.63;0.63;;;;;;;;;;5049784;28;20044;-80
2022/02/20 13:25:06;;;;;;;1.05;0.70;;;;;;;;;;5048915;28;20619;-82
2022/02/20 13:27:44;;;;;;;1.75;0.70;;;;;;;;;;5049176;28;20557;-82
2022/02/20 13:30:26;;;;;;;1.60;1.40;;;;;;;;;;5048714;28;20064;-83
2022/02/20 13:33:05;;;;;;;0.85;0.80;;;;;;;;;;5031361;28;20060;-82
2022/02/20 13:35:33;;;;;;;5.68;0.93;;;;;;;;;;5030849;28;20413;-82
2022/02/20 13:38:03;;;;;;;4.53;1.23;;;;;;;;;;5049629;28;20057;-82
2022/02/20 13:40:40;;;;;;;0.85;0.85;;;;;;;;;;5047135;28;20040;-82
2022/02/20 13:43:11;;;;;;;0.52;0.52;;;;;;;;;;5048836;28;20056;-80
2022/02/20 13:45:57;;;;;;;4.35;0.98;;;;;;;;;;5048196;28;20077;-80
2022/02/20 13:48:33;;;;;;;1.08;0.98;;;;;;;;;;5048533;28;20041;-82
2022/02/20 13:51:10;;;;;;;0.70;0.70;;;;;;;;;;5049106;28;20057;-81
2022/02/20 13:53:51;;;;;;;0.85;0.70;;;;;;;;;;5048137;28;20049;-83
2022/02/20 13:56:21;;;;;;;0.80;0.80;;;;;;;;;;5045445;28;20048;-82
2022/02/20 13:59:00;;;;;;;0.65;0.57;;;;;;;;;;5011104;28;20049;-81
2022/02/20 14:01:40;;;;;;;0.50;0.50;;;;;;;;;;4994061;28;20053;-83
2022/02/20 14:04:27;;;;;;;0.70;0.70;;;;;;;;;;4994418;28;20041;-85
2022/02/20 14:06:57;;;;;;;0.52;0.52;;;;;;;;;;5029031;28;20060;-84
2022/02/20 14:09:30;;;;;;;0.77;0.70;;;;;;;;;;5028478;28;20569;-83
2022/02/20 14:12:17;;;;;;;0.60;0.60;;;;;;;;;;5010399;28;20045;-83
2022/02/20 14:15:20;;;;;;;4.60;0.90;;;;;;;;;;5028648;28;20060;-83
2022/02/20 14:18:09;;;;;;;0.85;0.65;;;;;;;;;;4946358;28;20053;-84
2022/02/20 14:20:51;;;;;;;0.68;0.68;;;;;;;;;;5028277;28;20056;-85
2022/02/20 14:23:20;;;;;;;1.63;0.70;;;;;;;;;;4993907;28;20406;-82
2022/02/20 14:25:49;;;;;;;1.23;1.13;;;;;;;;;;5012630;28;20064;-84
2022/02/20 14:28:18;;;;;;;0.52;0.52;;;;;;;;;;5047055;28;20048;-83
2022/02/20 14:30:46;;;;;;;0.55;0.55;;;;;;;;;;5047913;28;20052;-82
2022/02/20 14:33:19;;;;;;;0.60;0.60;;;;;;;;;;5047881;28;20059;-86
2022/02/20 14:35:50;;;;;;;0.60;0.60;;;;;;;;;;5048186;28;20048;-81
2022/02/20 14:38:19;;;;;;;0.53;0.53;;;;;;;;;;5029732;28;20060;-79
2022/02/20 14:40:50;;;;;;;0.50;0.50;;;;;;;;;;5047445;28;20298;-81
2022/02/20 14:43:19;;;;;;;0.70;0.70;;;;;;;;;;5029294;28;20056;-83
2022/02/20 14:45:47;;;;;;;3.03;0.73;;;;;;;;;;5029494;28;20052;-82
2022/02/20 14:48:15;;;;;;;0.95;0.70;;;;;;;;;;5046991;28;20705;-82
2022/02/20 14:50:43;;;;;;;0.75;0.70;;;;;;;;;;5029939;28;20052;-80
2022/02/20 14:53:11;;;;;;;0.70;0.70;;;;;;;;;;5047055;28;20053;-80
2022/02/20 14:55:39;;;;;;;0.50;0.50;;;;;;;;;;5046418;28;20056;-83
2022/02/20 14:58:09;;;;;;;0.40;0.40;;;;;;;;;;5047086;28;20709;-85
2022/02/20 15:00:37;;;;;;;0.55;0.55;;;;;;;;;;5046812;28;20060;-84
2022/02/20 15:03:06;;;;;;;0.50;0.50;;;;;;;;;;5028858;28;20053;-81
2022/02/20 15:05:36;;;;;;;1.05;0.70;;;;;;;;;;5046562;28;20053;-85
2022/02/20 15:08:04;;;;;;;0.68;0.68;;;;;;;;;;5043798;28;20700;-82
2022/02/20 15:10:33;;;;;;;1.10;1.10;;;;;;;;;;5043728;28;20418;-85
2022/02/20 15:13:01;;;;;;;0.80;0.80;;;;;;;;;;5027153;28;20060;-82
2022/02/20 15:15:31;;;;;;;0.45;0.45;;;;;;;;;;5040315;28;20052;-85
2022/02/20 15:17:59;;;;;;;0.60;0.60;;;;;;;;;;5044853;28;20496;-88
2022/02/20 15:20:28;;;;;;;0.60;0.60;;;;;;;;;;5044612;28;20390;-84
2022/02/20 15:22:56;;;;;;;0.85;0.85;;;;;;;;;;5032756;28;20044;-86
2022/02/20 15:25:24;;;;;;;0.43;0.43;;;;;;;;;;5026591;28;20754;-86
2022/02/20 15:27:52;;;;;;;0.95;0.60;;;;;;;;;;5025580;28;20056;-85
2022/02/20 15:30:20;;;;;;;1.02;0.95;;;;;;;;;;5043460;28;20410;-84
2022/02/20 15:32:50;;;;;;;0.73;0.73;;;;;;;;;;5045581;28;20064;-84
2022/02/20 15:35:18;;;;;;;0.80;0.80;;;;;;;;;;5042074;28;20494;-84
2022/02/20 15:37:46;;;;;;;0.70;0.70;;;;;;;;;;5043286;28;20450;-85
2022/02/20 15:40:14;;;;;;;0.50;0.50;;;;;;;;;;5026326;28;20046;-81